createdAt,value
2022-09-20T00:00:43.693Z,59.09
2022-09-20T00:02:45.281Z,58.99
2022-09-20T00:04:49.610Z,58.63
2022-09-20T00:06:51.435Z,59.04
2022-09-20T00:08:53.483Z,58.93
2022-09-20T00:11:06.317Z,58.91
2022-09-20T00:13:11.273Z,58.56
2022-09-20T00:15:12.812Z,58.35
2022-09-20T00:17:14.716Z,58.07
2022-09-20T00:19:21.163Z,58.19
2022-09-20T00:21:27.866Z,58.02
2022-09-20T00:23:30.335Z,58.08
2022-09-20T00:25:32.077Z,58.42
2022-09-20T00:27:33.710Z,58.46
2022-09-20T00:29:35.354Z,58.71
2022-09-20T00:31:39.182Z,58.54
2022-09-20T00:33:59.128Z,58.62
2022-09-20T00:36:00.855Z,58.74
2022-09-20T00:38:02.472Z,58.72
2022-09-20T00:40:05.758Z,58.54
2022-09-20T00:42:09.832Z,58.66
2022-09-20T00:44:48.129Z,58.77
2022-09-20T00:46:49.830Z,58.66
2022-09-20T00:48:53.391Z,58.77
2022-09-20T00:51:00.124Z,58.55
2022-09-20T00:53:26.508Z,58.99
2022-09-20T00:55:29.174Z,59.05
2022-09-20T00:57:35.309Z,59.11
2022-09-20T00:59:40.567Z,58.89
2022-09-20T01:01:44.192Z,58.77
2022-09-20T01:03:46.505Z,58.17
2022-09-20T01:05:48.169Z,57.85
2022-09-20T01:07:50.617Z,57.56
2022-09-20T01:09:52.450Z,57.29
2022-09-20T01:11:55.920Z,57.50
2022-09-20T01:13:57.881Z,57.56
2022-09-20T01:16:01.381Z,57.55
2022-09-20T01:18:06.571Z,57.03
2022-09-20T01:20:09.972Z,57.21
2022-09-20T01:22:21.770Z,56.97
2022-09-20T01:24:28.482Z,56.60
2022-09-20T01:26:47.392Z,55.91
2022-09-20T01:28:50.759Z,55.54
2022-09-20T01:31:46.873Z,55.42
2022-09-20T01:33:59.167Z,55.37
2022-09-20T01:36:04.101Z,55.34
2022-09-20T01:38:34.146Z,55.72
2022-09-20T01:41:19.490Z,55.66
2022-09-20T01:43:39.794Z,55.91
2022-09-20T01:45:46.887Z,55.98
2022-09-20T01:47:57.689Z,56.08
2022-09-20T01:50:28.400Z,55.82
2022-09-20T01:52:36.396Z,55.92
2022-09-20T01:54:49.513Z,56.43
2022-09-20T01:57:09.230Z,56.74
2022-09-20T01:59:24.843Z,57.03
2022-09-20T02:01:32.657Z,57.00
2022-09-20T02:03:37.332Z,56.87
2022-09-20T02:05:48.097Z,57.39
2022-09-20T02:08:08.344Z,57.41
2022-09-20T02:10:20.262Z,57.63
2022-09-20T02:12:43.462Z,57.41
2022-09-20T02:15:03.801Z,57.11
2022-09-20T02:17:13.959Z,57.18
2022-09-20T02:19:28.131Z,57.18
2022-09-20T02:21:48.223Z,57.00
2022-09-20T02:24:15.052Z,57.24
2022-09-20T02:26:33.870Z,57.85
2022-09-20T02:29:01.391Z,58.15
2022-09-20T02:31:17.019Z,58.22
2022-09-20T02:33:36.674Z,58.80
2022-09-20T02:36:07.965Z,58.62
2022-09-20T02:38:18.669Z,58.92
2022-09-20T02:40:41.547Z,58.88
2022-09-20T02:43:04.752Z,59.68
2022-09-20T02:45:06.272Z,59.90
2022-09-20T02:47:37.651Z,60.81
2022-09-20T02:50:14.601Z,61.74
2022-09-20T02:52:40.452Z,61.98
2022-09-20T02:55:01.655Z,62.02
2022-09-20T02:57:06.359Z,62.34
2022-09-20T02:59:37.668Z,61.53
2022-09-20T03:01:49.186Z,61.76
2022-09-20T03:03:56.868Z,62.03
2022-09-20T03:06:06.420Z,61.60
2022-09-20T03:08:43.455Z,61.99
2022-09-20T03:11:22.102Z,61.77
2022-09-20T03:13:52.964Z,62.06
2022-09-20T03:16:14.941Z,62.24
2022-09-20T03:18:20.064Z,62.03
2022-09-20T03:20:36.034Z,62.27
2022-09-20T03:22:37.620Z,61.92
2022-09-20T03:24:54.415Z,61.42
2022-09-20T03:26:58.867Z,61.53
2022-09-20T03:29:00.499Z,61.79
2022-09-20T03:31:11.984Z,61.58
2022-09-20T03:33:44.214Z,61.94
2022-09-20T03:36:11.799Z,62.05
2022-09-20T03:38:29.830Z,61.67
2022-09-20T03:40:59.348Z,61.24
2022-09-20T03:43:11.405Z,60.83
2022-09-20T03:45:50.767Z,60.86
2022-09-20T03:48:09.364Z,60.88
2022-09-20T03:50:35.934Z,61.33
2022-09-20T03:53:00.203Z,60.71
2022-09-20T03:55:16.387Z,60.58
2022-09-20T03:57:36.665Z,60.20
2022-09-20T03:59:51.584Z,60.07
2022-09-20T04:01:56.741Z,60.21
2022-09-20T04:04:32.595Z,60.03
2022-09-20T04:06:43.160Z,60.16
2022-09-20T04:09:09.234Z,60.09
2022-09-20T04:11:30.093Z,59.52
2022-09-20T04:13:45.537Z,59.76
2022-09-20T04:16:19.343Z,59.86
2022-09-20T04:18:20.899Z,59.81
2022-09-20T04:20:40.447Z,59.90
2022-09-20T04:22:43.422Z,59.90
2022-09-20T04:24:53.175Z,59.75
2022-09-20T04:27:25.940Z,59.99
2022-09-20T04:29:34.193Z,60.05
2022-09-20T04:31:41.462Z,59.78
2022-09-20T04:33:45.658Z,59.93
2022-09-20T04:36:31.673Z,60.07
2022-09-20T04:38:35.701Z,60.13
2022-09-20T04:40:47.518Z,60.33
2022-09-20T04:43:07.687Z,59.96
2022-09-20T04:45:13.567Z,59.56
2022-09-20T04:47:36.886Z,59.21
2022-09-20T04:50:11.593Z,59.14
2022-09-20T04:52:49.939Z,58.59
2022-09-20T04:55:12.889Z,58.85
2022-09-20T04:57:39.888Z,58.32
2022-09-20T05:00:07.389Z,57.92
2022-09-20T05:02:21.256Z,57.37
2022-09-20T05:04:28.560Z,57.63
2022-09-20T05:06:48.513Z,57.01
2022-09-20T05:09:06.881Z,57.58
2022-09-20T05:11:30.650Z,58.04
2022-09-20T05:14:12.837Z,57.25
2022-09-20T05:16:44.157Z,57.43
2022-09-20T05:19:13.653Z,57.02
2022-09-20T05:21:38.132Z,57.14
2022-09-20T05:24:08.370Z,57.13
2022-09-20T05:26:22.787Z,57.17
2022-09-20T05:28:24.387Z,57.12
2022-09-20T05:30:35.315Z,57.36
2022-09-20T05:32:39.563Z,57.27
2022-09-20T05:35:00.292Z,57.10
2022-09-20T05:37:28.998Z,57.13
2022-09-20T05:39:45.973Z,57.26
2022-09-20T05:42:01.012Z,58.67
2022-09-20T05:44:31.225Z,58.54
2022-09-20T05:46:45.513Z,58.54
2022-09-20T05:48:55.321Z,57.73
2022-09-20T05:51:09.333Z,57.05
2022-09-20T05:53:22.660Z,57.58
2022-09-20T05:55:54.813Z,57.15
2022-09-20T05:58:24.968Z,56.90
2022-09-20T06:00:31.055Z,56.75
2022-09-20T06:02:41.791Z,56.47
2022-09-20T06:04:52.863Z,56.32
2022-09-20T06:07:03.869Z,56.12
2022-09-20T06:09:17.040Z,56.02
2022-09-20T06:11:30.738Z,55.67
2022-09-20T06:14:10.241Z,56.12
2022-09-20T06:16:25.457Z,56.06
2022-09-20T06:18:31.960Z,56.53
2022-09-20T06:20:39.481Z,56.31
2022-09-20T06:22:52.569Z,56.17
2022-09-20T06:25:09.275Z,55.83
2022-09-20T06:27:19.318Z,55.56
2022-09-20T06:29:35.546Z,55.83
2022-09-20T06:31:38.165Z,56.36
2022-09-20T06:33:55.691Z,57.53
2022-09-20T06:36:32.707Z,58.83
2022-09-20T06:38:58.739Z,58.08
2022-09-20T06:41:18.767Z,57.25
2022-09-20T06:43:20.426Z,57.22
2022-09-20T06:45:22.036Z,57.32
2022-09-20T06:47:23.652Z,57.20
2022-09-20T06:49:27.376Z,56.45
2022-09-20T06:51:34.318Z,55.97
2022-09-20T06:53:40.323Z,56.04
2022-09-20T06:55:43.283Z,56.01
2022-09-20T06:57:45.901Z,55.83
2022-09-20T06:59:47.483Z,55.38
2022-09-20T07:01:49.529Z,54.51
2022-09-20T07:03:51.279Z,54.33
2022-09-20T07:05:53.029Z,54.01
2022-09-20T07:07:58.754Z,54.14
2022-09-20T07:10:00.322Z,53.32
2022-09-20T07:12:02.073Z,52.84
2022-09-20T07:14:03.829Z,52.98
2022-09-20T07:16:09.336Z,53.20
2022-09-20T07:18:10.988Z,53.75
2022-09-20T07:20:15.067Z,53.28
2022-09-20T07:22:18.581Z,52.94
2022-09-20T07:24:20.194Z,53.09
2022-09-20T07:26:26.814Z,53.10
2022-09-20T07:28:29.250Z,52.24
2022-09-20T07:30:30.987Z,52.30
2022-09-20T07:32:33.105Z,52.82
2022-09-20T07:34:34.738Z,52.41
2022-09-20T07:36:37.109Z,51.87
2022-09-20T07:38:39.975Z,51.93
2022-09-20T07:40:42.007Z,52.19
2022-09-20T07:42:46.021Z,52.31
2022-09-20T07:44:47.776Z,52.28
2022-09-20T07:46:52.770Z,51.62
2022-09-20T07:48:54.546Z,51.54
2022-09-20T07:50:59.091Z,50.89
2022-09-20T07:53:01.044Z,51.28
2022-09-20T07:55:02.760Z,51.06
2022-09-20T07:57:05.740Z,51.69
2022-09-20T07:59:07.434Z,50.23
2022-09-20T08:01:12.613Z,50.65
2022-09-20T08:03:14.356Z,49.95
2022-09-20T08:05:16.235Z,49.37
2022-09-20T08:07:18.844Z,47.89
2022-09-20T08:09:20.492Z,47.56
2022-09-20T08:11:27.748Z,50.70
2022-09-20T08:15:51.741Z,47.69
2022-09-20T08:17:53.339Z,47.19
2022-09-20T08:19:55.290Z,46.71
2022-09-20T08:21:57.065Z,46.62
2022-09-20T08:23:59.507Z,47.57
2022-09-20T08:26:02.496Z,47.82
2022-09-20T08:28:04.117Z,47.19
2022-09-20T08:30:06.465Z,47.69
2022-09-20T08:32:08.389Z,48.45
2022-09-20T08:34:12.417Z,49.29
2022-09-20T08:36:16.148Z,49.17
2022-09-20T08:40:39.568Z,47.99
2022-09-20T08:42:44.787Z,47.75
2022-09-20T08:45:00.698Z,47.88
2022-09-20T08:47:21.857Z,47.80
2022-09-20T08:49:26.702Z,47.22
2022-09-20T08:51:32.381Z,46.62
2022-09-20T08:53:34.252Z,45.85
2022-09-20T08:55:39.569Z,45.28
2022-09-20T08:57:41.209Z,45.67
2022-09-20T08:59:43.254Z,45.04
2022-09-20T09:01:45.644Z,45.15
2022-09-20T09:03:47.691Z,45.14
2022-09-20T09:05:53.940Z,44.77
2022-09-20T09:07:55.661Z,44.60
2022-09-20T09:09:57.263Z,44.43
2022-09-20T09:11:58.921Z,44.62
2022-09-20T09:14:30.027Z,45.34
2022-09-20T09:16:35.381Z,45.96
2022-09-20T09:18:40.696Z,45.95
2022-09-20T09:20:46.839Z,47.34
2022-09-20T09:23:09.107Z,47.69
2022-09-20T09:25:38.342Z,47.98
2022-09-20T09:27:55.245Z,48.10
2022-09-20T09:29:56.891Z,48.02
2022-09-20T09:32:19.223Z,47.76
2022-09-20T09:34:35.317Z,48.17
2022-09-20T09:36:43.989Z,48.25
2022-09-20T09:38:46.419Z,47.63
2022-09-20T09:41:02.366Z,47.67
2022-09-20T09:43:04.413Z,47.23
2022-09-20T09:45:13.944Z,47.43
2022-09-20T09:47:37.564Z,47.05
2022-09-20T09:50:00.149Z,47.67
2022-09-20T09:52:15.780Z,47.07
2022-09-20T09:54:19.917Z,46.39
2022-09-20T09:56:43.268Z,45.04
2022-09-20T09:58:54.923Z,44.32
2022-09-20T10:00:59.894Z,43.15
2022-09-20T10:03:20.017Z,42.49
2022-09-20T10:05:27.471Z,42.54
2022-09-20T10:08:03.231Z,41.61
2022-09-20T10:10:16.772Z,40.46
2022-09-20T10:12:31.048Z,41.00
2022-09-20T10:14:44.538Z,41.40
2022-09-20T10:17:05.041Z,40.99
2022-09-20T10:19:32.122Z,40.47
2022-09-20T10:21:43.852Z,40.52
2022-09-20T10:24:05.170Z,40.65
2022-09-20T10:26:27.106Z,40.28
2022-09-20T10:28:48.575Z,39.23
2022-09-20T10:31:11.732Z,39.11
2022-09-20T10:33:22.994Z,38.87
2022-09-20T10:35:29.159Z,39.07
2022-09-20T10:37:33.765Z,39.75
2022-09-20T10:39:37.572Z,39.82
2022-09-20T10:42:14.983Z,40.47
2022-09-20T10:44:19.340Z,39.83
2022-09-20T10:46:54.799Z,39.50
2022-09-20T10:49:24.094Z,40.04
2022-09-20T10:51:39.134Z,39.90
2022-09-20T10:54:02.585Z,40.08
2022-09-20T10:56:35.260Z,41.23
2022-09-20T10:58:54.285Z,40.58
2022-09-20T11:01:37.270Z,39.52
2022-09-20T11:03:54.008Z,39.44
2022-09-20T11:06:01.323Z,38.81
2022-09-20T11:08:19.131Z,38.39
2022-09-20T11:10:45.108Z,38.49
2022-09-20T11:12:52.024Z,38.72
2022-09-20T11:15:21.821Z,38.96
2022-09-20T11:17:31.945Z,38.58
2022-09-20T11:20:20.750Z,39.41
2022-09-20T11:22:44.079Z,39.90
2022-09-20T11:24:57.978Z,39.62
2022-09-20T11:27:06.916Z,39.29
2022-09-20T11:29:14.604Z,38.88
2022-09-20T11:31:24.859Z,39.34
2022-09-20T11:33:36.002Z,40.25
2022-09-20T11:35:44.376Z,40.35
2022-09-20T11:37:52.267Z,40.55
2022-09-20T11:39:55.031Z,40.40
2022-09-20T11:41:59.963Z,40.03
2022-09-20T11:44:13.590Z,40.17
2022-09-20T11:46:23.413Z,40.68
2022-09-20T11:48:31.971Z,41.57
2022-09-20T11:50:46.459Z,41.04
2022-09-20T11:53:21.102Z,41.18
2022-09-20T11:55:37.821Z,39.89
2022-09-20T11:57:39.783Z,39.42
2022-09-20T11:59:43.114Z,39.33
2022-09-20T12:01:45.924Z,40.17
2022-09-20T12:04:00.121Z,40.01
2022-09-20T12:06:27.455Z,39.89
2022-09-20T12:08:40.937Z,39.33
2022-09-20T12:10:42.862Z,39.86
2022-09-20T12:12:47.074Z,39.39
2022-09-20T12:14:56.553Z,39.53
2022-09-20T12:16:58.335Z,39.91
2022-09-20T12:18:59.892Z,39.86
2022-09-20T12:21:03.106Z,39.06
2022-09-20T12:23:38.827Z,39.26
2022-09-20T12:25:40.461Z,39.39
2022-09-20T12:27:42.215Z,38.59
2022-09-20T12:29:47.639Z,38.82
2022-09-20T12:31:54.799Z,38.13
2022-09-20T12:34:11.968Z,38.13
2022-09-20T12:36:16.882Z,39.10
2022-09-20T12:38:21.449Z,39.68
2022-09-20T12:40:26.289Z,40.20
2022-09-20T12:42:31.412Z,40.43
2022-09-20T12:44:35.373Z,40.20
2022-09-20T12:46:41.606Z,39.62
2022-09-20T12:48:43.202Z,39.90
2022-09-20T12:51:30.903Z,40.26
2022-09-20T12:53:32.580Z,39.92
2022-09-20T12:55:40.907Z,39.80
2022-09-20T12:57:42.972Z,39.32
2022-09-20T12:59:44.950Z,39.34
2022-09-20T13:01:46.985Z,38.23
2022-09-20T13:03:50.137Z,37.68
2022-09-20T13:06:15.690Z,37.37
2022-09-20T13:08:23.984Z,37.54
2022-09-20T13:10:29.304Z,38.27
2022-09-20T13:12:32.190Z,38.24
2022-09-20T13:14:34.914Z,37.80
2022-09-20T13:16:40.495Z,37.81
2022-09-20T13:18:42.343Z,38.66
2022-09-20T13:20:44.403Z,37.58
2022-09-20T13:22:46.158Z,38.35
2022-09-20T13:24:50.255Z,37.67
2022-09-20T13:26:53.917Z,37.89
2022-09-20T13:28:59.215Z,37.90
2022-09-20T13:31:21.658Z,36.92
2022-09-20T13:33:25.159Z,36.45
2022-09-20T13:35:32.437Z,37.20
2022-09-20T13:37:34.916Z,36.83
2022-09-20T13:39:37.334Z,36.97
2022-09-20T13:41:39.434Z,37.31
2022-09-20T13:43:43.578Z,37.19
2022-09-20T13:45:46.871Z,37.25
2022-09-20T13:47:51.518Z,36.56
2022-09-20T13:49:53.622Z,37.51
2022-09-20T13:51:55.403Z,37.11
2022-09-20T13:54:18.322Z,37.18
2022-09-20T13:56:23.607Z,37.56
2022-09-20T13:58:31.524Z,37.85
2022-09-20T14:00:34.856Z,38.06
2022-09-20T14:02:37.097Z,38.28
2022-09-20T14:04:38.913Z,37.89
2022-09-20T14:06:40.748Z,37.86
2022-09-20T14:08:45.192Z,38.32
2022-09-20T14:10:47.121Z,38.54
2022-09-20T14:12:49.266Z,39.87
2022-09-20T14:14:51.344Z,39.29
2022-09-20T14:16:55.000Z,39.38
2022-09-20T14:18:58.576Z,39.03
2022-09-20T14:21:00.679Z,39.47
2022-09-20T14:23:02.343Z,40.15
2022-09-20T14:25:21.195Z,41.11
2022-09-20T14:27:23.165Z,41.46
2022-09-20T14:29:43.780Z,41.99
2022-09-20T14:31:47.239Z,41.63
2022-09-20T14:33:55.111Z,41.19
2022-09-20T14:35:58.158Z,40.73
2022-09-20T14:38:02.304Z,40.39
2022-09-20T14:40:19.693Z,40.03
2022-09-20T14:42:27.152Z,39.86
2022-09-20T14:44:32.485Z,40.87
2022-09-20T14:46:38.821Z,41.76
2022-09-20T14:48:41.450Z,42.32
2022-09-20T14:50:45.786Z,42.41
2022-09-20T14:52:47.375Z,41.83
2022-09-20T14:54:59.797Z,41.02
2022-09-20T14:57:01.667Z,40.20
2022-09-20T14:59:13.868Z,40.14
2022-09-20T15:01:26.031Z,40.59
2022-09-20T15:03:31.083Z,40.75
2022-09-20T15:05:33.904Z,40.80
2022-09-20T15:07:37.243Z,41.44
2022-09-20T15:09:39.144Z,40.80
2022-09-20T15:11:41.088Z,39.79
2022-09-20T15:13:43.141Z,39.11
2022-09-20T15:15:48.554Z,38.31
2022-09-20T15:17:50.467Z,38.30
2022-09-20T15:19:52.269Z,40.23
2022-09-20T15:21:54.196Z,40.16
2022-09-20T15:23:55.863Z,39.84
2022-09-20T15:25:57.515Z,39.58
2022-09-20T15:27:59.731Z,39.48
2022-09-20T15:30:01.280Z,39.22
2022-09-20T15:32:04.514Z,38.85
2022-09-20T15:34:07.392Z,40.37
2022-09-20T15:36:10.322Z,40.84
2022-09-20T15:38:12.890Z,40.24
2022-09-20T15:40:15.305Z,40.20
2022-09-20T15:42:17.019Z,40.41
2022-09-20T15:44:20.814Z,40.42
2022-09-20T15:46:24.569Z,39.53
2022-09-20T15:48:28.350Z,39.72
2022-09-20T15:50:30.255Z,40.22
2022-09-20T15:52:34.496Z,40.63
2022-09-20T15:54:36.306Z,41.05
2022-09-20T15:56:40.691Z,40.97
2022-09-20T15:58:48.689Z,40.03
2022-09-20T16:00:50.326Z,39.67
2022-09-20T16:02:51.983Z,39.44
2022-09-20T16:04:57.824Z,39.45
2022-09-20T16:06:59.401Z,39.71
2022-09-20T16:09:00.981Z,39.66
2022-09-20T16:11:03.360Z,39.76
2022-09-20T16:13:04.998Z,39.82
2022-09-20T16:15:07.323Z,40.11
2022-09-20T16:17:08.897Z,40.70
2022-09-20T16:19:25.156Z,41.35
2022-09-20T16:21:26.849Z,41.90
2022-09-20T16:23:28.494Z,42.48
2022-09-20T16:25:30.132Z,42.97
2022-09-20T16:27:34.280Z,43.07
2022-09-20T16:29:36.325Z,43.72
2022-09-20T16:31:43.040Z,44.08
2022-09-20T16:33:44.738Z,44.48
2022-09-20T16:35:46.314Z,44.46
2022-09-20T16:37:48.284Z,44.83
2022-09-20T16:39:49.877Z,45.14
2022-09-20T16:41:52.951Z,45.25
2022-09-20T16:43:54.924Z,45.45
2022-09-20T16:46:00.662Z,45.55
2022-09-20T16:48:08.291Z,45.64
2022-09-20T16:50:11.988Z,45.65
2022-09-20T16:52:13.813Z,46.09
2022-09-20T16:54:16.747Z,46.12
2022-09-20T16:56:21.667Z,46.15
2022-09-20T16:58:30.501Z,46.33
2022-09-20T17:00:33.748Z,46.28
2022-09-20T17:02:36.399Z,46.06
2022-09-20T17:04:38.042Z,46.48
2022-09-20T17:06:40.277Z,46.26
2022-09-20T17:08:43.008Z,46.25
2022-09-20T17:10:45.341Z,46.55
2022-09-20T17:12:47.950Z,46.64
2022-09-20T17:14:49.808Z,46.28
2022-09-20T17:16:51.510Z,46.58
2022-09-20T17:19:07.356Z,46.43
2022-09-20T17:21:18.537Z,46.47
2022-09-20T17:23:20.836Z,46.74
2022-09-20T17:25:22.584Z,46.56
2022-09-20T17:27:24.518Z,46.69
2022-09-20T17:29:26.182Z,46.34
2022-09-20T17:31:34.184Z,46.44
2022-09-20T17:33:36.705Z,46.66
2022-09-20T17:35:38.489Z,46.63
2022-09-20T17:37:41.064Z,46.73
2022-09-20T17:39:42.636Z,46.85
2022-09-20T17:41:47.171Z,46.58
2022-09-20T17:43:53.025Z,47.08
2022-09-20T17:45:55.821Z,46.91
2022-09-20T17:47:58.688Z,46.84
2022-09-20T17:50:01.358Z,47.10
2022-09-20T17:52:04.524Z,47.47
2022-09-20T17:54:08.076Z,47.25
2022-09-20T17:56:11.871Z,47.67
2022-09-20T17:58:13.602Z,47.72
2022-09-20T18:00:16.584Z,48.08
2022-09-20T18:02:18.524Z,48.29
2022-09-20T18:04:21.438Z,48.18
2022-09-20T18:06:28.999Z,48.40
2022-09-20T18:08:30.730Z,48.28
2022-09-20T18:10:32.914Z,48.31
2022-09-20T18:12:34.995Z,48.33
2022-09-20T18:14:37.138Z,48.55
2022-09-20T18:16:39.837Z,48.62
2022-09-20T18:18:43.932Z,48.71
2022-09-20T18:20:46.483Z,48.81
2022-09-20T18:22:49.043Z,48.93
2022-09-20T18:24:51.016Z,48.40
2022-09-20T18:26:52.785Z,48.50
2022-09-20T18:29:02.476Z,48.54
2022-09-20T18:31:05.535Z,48.28
2022-09-20T18:33:08.459Z,48.46
2022-09-20T18:35:10.699Z,48.58
2022-09-20T18:37:14.838Z,48.23
2022-09-20T18:39:16.850Z,48.35
2022-09-20T18:41:18.604Z,48.26
2022-09-20T18:43:20.999Z,48.33
2022-09-20T18:45:23.594Z,48.47
2022-09-20T18:47:25.915Z,48.17
2022-09-20T18:49:29.647Z,48.88
2022-09-20T18:51:38.576Z,48.29
2022-09-20T18:53:41.173Z,48.65
2022-09-20T18:55:44.131Z,48.85
2022-09-20T18:57:46.488Z,48.49
2022-09-20T18:59:54.442Z,48.35
2022-09-20T19:02:17.805Z,48.39
2022-09-20T19:04:47.730Z,48.41
2022-09-20T19:07:04.877Z,48.45
2022-09-20T19:09:15.195Z,48.33
2022-09-20T19:11:32.004Z,48.62
2022-09-20T19:14:15.135Z,48.80
2022-09-20T19:16:21.173Z,48.73
2022-09-20T19:19:02.005Z,48.93
2022-09-20T19:21:41.481Z,48.53
2022-09-20T19:24:03.506Z,48.83
2022-09-20T19:26:19.008Z,48.91
2022-09-20T19:28:21.141Z,48.35
2022-09-20T19:30:23.635Z,48.82
2022-09-20T19:32:27.422Z,48.41
2022-09-20T19:34:30.258Z,48.87
2022-09-20T19:36:39.856Z,49.25
2022-09-20T19:39:18.676Z,49.44
2022-09-20T19:41:41.899Z,49.32
2022-09-20T19:43:47.340Z,49.56
2022-09-20T19:45:56.759Z,49.35
2022-09-20T19:48:16.533Z,49.49
2022-09-20T19:50:44.524Z,49.52
2022-09-20T19:52:46.395Z,50.18
2022-09-20T19:54:51.860Z,51.70
2022-09-20T19:56:55.734Z,52.23
2022-09-20T19:58:57.757Z,52.03
2022-09-20T20:00:59.617Z,51.66
2022-09-20T20:03:01.563Z,51.15
2022-09-20T20:05:04.185Z,50.75
2022-09-20T20:07:22.366Z,50.99
2022-09-20T20:09:45.305Z,50.98
2022-09-20T20:12:05.887Z,50.64
2022-09-20T20:14:12.982Z,50.72
2022-09-20T20:16:16.244Z,50.75
2022-09-20T20:18:32.446Z,50.45
2022-09-20T20:20:45.846Z,50.23
2022-09-20T20:23:22.274Z,50.34
2022-09-20T20:25:42.165Z,50.49
2022-09-20T20:27:43.731Z,50.04
2022-09-20T20:29:45.506Z,50.40
2022-09-20T20:31:47.206Z,50.27
2022-09-20T20:33:49.028Z,50.71
2022-09-20T20:35:55.761Z,50.70
2022-09-20T20:38:36.940Z,50.74
2022-09-20T20:40:39.206Z,50.37
2022-09-20T20:42:42.364Z,50.73
2022-09-20T20:44:43.940Z,50.73
2022-09-20T20:46:47.585Z,50.56
2022-09-20T20:48:49.574Z,50.60
2022-09-20T20:51:04.554Z,50.42
2022-09-20T20:53:06.688Z,50.50
2022-09-20T20:55:08.687Z,50.86
2022-09-20T20:57:10.257Z,51.13
2022-09-20T20:59:11.930Z,50.66
2022-09-20T21:01:13.650Z,51.64
2022-09-20T21:03:15.264Z,51.15
2022-09-20T21:05:16.932Z,51.63
2022-09-20T21:07:18.577Z,51.77
2022-09-20T21:09:20.412Z,51.52
2022-09-20T21:11:24.464Z,51.79
2022-09-20T21:13:26.097Z,51.67
2022-09-20T21:15:28.040Z,51.69
2022-09-20T21:17:33.907Z,52.21
2022-09-20T21:19:37.509Z,52.16
2022-09-20T21:21:40.183Z,52.62
2022-09-20T21:23:41.884Z,52.34
2022-09-20T21:25:43.723Z,52.68
2022-09-20T21:27:45.316Z,52.50
2022-09-20T21:29:46.957Z,52.84
2022-09-20T21:31:48.797Z,52.83
2022-09-20T21:33:50.443Z,52.61
2022-09-20T21:35:52.367Z,52.90
2022-09-20T21:37:53.980Z,53.31
2022-09-20T21:39:55.548Z,53.48
2022-09-20T21:41:57.515Z,53.46
2022-09-20T21:44:00.642Z,53.41
2022-09-20T21:46:02.545Z,53.28
2022-09-20T21:48:05.399Z,53.62
2022-09-20T21:50:07.616Z,53.59
2022-09-20T21:52:10.970Z,53.60
2022-09-20T21:54:12.611Z,53.66
2022-09-20T21:56:17.584Z,53.87
2022-09-20T21:58:19.216Z,53.83
2022-09-20T22:00:20.892Z,54.08
2022-09-20T22:02:23.385Z,54.04
2022-09-20T22:04:25.547Z,53.87
2022-09-20T22:06:32.487Z,53.84
2022-09-20T22:08:34.312Z,53.91
2022-09-20T22:10:37.025Z,53.96
2022-09-20T22:12:38.831Z,54.05
2022-09-20T22:14:40.506Z,54.37
2022-09-20T22:16:43.727Z,54.36
2022-09-20T22:18:46.979Z,54.50
2022-09-20T22:20:48.702Z,54.37
2022-09-20T22:22:50.385Z,54.66
2022-09-20T22:24:52.030Z,54.79
2022-09-20T22:26:54.031Z,54.91
2022-09-20T22:28:56.168Z,54.68
2022-09-20T22:31:03.374Z,55.13
2022-09-20T22:33:05.251Z,55.32
2022-09-20T22:35:07.126Z,55.17
2022-09-20T22:37:08.771Z,55.25
2022-09-20T22:39:11.365Z,55.20
2022-09-20T22:41:15.020Z,55.27
2022-09-20T22:43:16.672Z,55.31
2022-09-20T22:45:18.230Z,55.37
2022-09-20T22:47:19.840Z,55.33
2022-09-20T22:49:21.413Z,55.56
2022-09-20T22:51:25.403Z,55.45
2022-09-20T22:53:28.317Z,55.79
2022-09-20T22:55:31.379Z,55.87
2022-09-20T22:57:32.954Z,56.01
2022-09-20T22:59:34.766Z,56.34
2022-09-20T23:01:47.081Z,56.21
2022-09-20T23:03:54.101Z,56.12
2022-09-20T23:05:55.774Z,56.84
2022-09-20T23:07:57.321Z,56.55
2022-09-20T23:09:58.935Z,56.78
2022-09-20T23:12:00.655Z,56.60
2022-09-20T23:14:05.126Z,56.84
2022-09-20T23:16:11.340Z,56.74
2022-09-20T23:18:12.960Z,57.06
2022-09-20T23:20:14.753Z,57.21
2022-09-20T23:22:16.347Z,57.30
2022-09-20T23:24:17.992Z,57.36
2022-09-20T23:26:20.385Z,57.32
2022-09-20T23:28:28.257Z,57.25
2022-09-20T23:30:32.028Z,57.18
2022-09-20T23:32:33.553Z,56.96
2022-09-20T23:34:35.124Z,56.93
2022-09-20T23:36:39.174Z,56.96
2022-09-20T23:38:41.180Z,56.87
2022-09-20T23:40:42.744Z,56.75
2022-09-20T23:42:44.433Z,56.80
2022-09-20T23:44:46.285Z,56.90
2022-09-20T23:46:47.839Z,56.58
2022-09-20T23:48:51.015Z,56.81
2022-09-20T23:50:52.840Z,56.97
2022-09-20T23:52:54.432Z,56.99
2022-09-20T23:54:56.044Z,56.80
2022-09-20T23:56:57.652Z,56.96
2022-09-20T23:58:59.300Z,56.99
